sensor_id;sensor_type;location;lat;lon;timestamp;P1;durP1;ratioP1;P2;durP2;ratioP2
75504;SDS011;64085;54.974;73.410;2023-09-18T15:22:03;10.45;;;5.57;;
75504;SDS011;64085;54.974;73.410;2023-09-18T15:24:28;7.57;;;4.78;;
75504;SDS011;64085;54.974;73.410;2023-09-18T15:26:54;8.90;;;4.68;;
75504;SDS011;64085;54.974;73.410;2023-09-18T15:29:19;9.10;;;4.50;;
75504;SDS011;64085;54.974;73.410;2023-09-18T15:31:45;10.20;;;5.10;;
75504;SDS011;64085;54.974;73.410;2023-09-18T15:34:12;6.88;;;4.55;;
75504;SDS011;64085;54.974;73.410;2023-09-18T15:36:37;9.40;;;4.90;;
75504;SDS011;64085;54.974;73.410;2023-09-18T15:39:03;9.20;;;4.78;;
75504;SDS011;64085;54.974;73.410;2023-09-18T15:41:28;8.45;;;4.45;;
75504;SDS011;64085;54.974;73.410;2023-09-18T15:43:54;8.95;;;4.25;;
75504;SDS011;64085;54.974;73.410;2023-09-18T15:46:20;9.15;;;4.38;;
75504;SDS011;64085;54.974;73.410;2023-09-18T15:48:45;8.57;;;4.60;;
75504;SDS011;64085;54.974;73.410;2023-09-18T15:51:10;6.57;;;3.63;;
75504;SDS011;64085;54.974;73.410;2023-09-18T15:53:36;7.50;;;3.25;;
75504;SDS011;64085;54.974;73.410;2023-09-18T15:56:01;5.25;;;2.42;;
75504;SDS011;64085;54.974;73.410;2023-09-18T15:58:27;6.35;;;3.15;;
75504;SDS011;64085;54.974;73.410;2023-09-18T16:00:53;9.10;;;3.58;;
75504;SDS011;64085;54.974;73.410;2023-09-18T16:03:19;7.47;;;4.10;;
75504;SDS011;64085;54.974;73.410;2023-09-18T16:05:45;7.55;;;4.88;;
75504;SDS011;64085;54.974;73.410;2023-09-18T16:08:17;11.25;;;5.50;;
75504;SDS011;64085;54.974;73.410;2023-09-18T16:10:42;11.82;;;5.97;;
75504;SDS011;64085;54.974;73.410;2023-09-18T16:13:08;11.13;;;5.70;;
75504;SDS011;64085;54.974;73.410;2023-09-18T16:15:33;13.93;;;6.90;;
75504;SDS011;64085;54.974;73.410;2023-09-18T16:17:59;10.75;;;5.68;;
75504;SDS011;64085;54.974;73.410;2023-09-18T16:20:24;10.45;;;5.68;;
75504;SDS011;64085;54.974;73.410;2023-09-18T16:22:49;8.57;;;5.97;;
75504;SDS011;64085;54.974;73.410;2023-09-18T16:37:01;35.67;;;19.75;;
75504;SDS011;64085;54.974;73.410;2023-09-18T16:39:28;29.73;;;14.93;;
75504;SDS011;64085;54.974;73.410;2023-09-18T16:41:53;22.85;;;11.38;;
75504;SDS011;64085;54.974;73.410;2023-09-18T16:44:19;28.60;;;13.77;;
75504;SDS011;64085;54.974;73.410;2023-09-18T16:46:44;21.38;;;10.57;;
75504;SDS011;64085;54.974;73.410;2023-09-18T16:49:10;22.23;;;10.95;;
75504;SDS011;64085;54.974;73.410;2023-09-18T16:51:39;26.85;;;14.32;;
75504;SDS011;64085;54.974;73.410;2023-09-18T16:54:05;52.00;;;23.45;;
75504;SDS011;64085;54.974;73.410;2023-09-18T16:56:31;35.90;;;17.60;;
75504;SDS011;64085;54.974;73.410;2023-09-18T16:58:56;37.60;;;19.88;;
75504;SDS011;64085;54.974;73.410;2023-09-18T17:01:21;54.92;;;26.25;;
75504;SDS011;64085;54.974;73.410;2023-09-18T17:03:47;42.22;;;22.38;;
75504;SDS011;64085;54.974;73.410;2023-09-18T17:06:15;45.70;;;23.35;;
75504;SDS011;64085;54.974;73.410;2023-09-18T17:08:43;56.13;;;25.77;;
75504;SDS011;64085;54.974;73.410;2023-09-18T17:11:08;48.90;;;23.95;;
75504;SDS011;64085;54.974;73.410;2023-09-18T17:13:34;46.50;;;23.20;;
75504;SDS011;64085;54.974;73.410;2023-09-18T17:15:59;41.90;;;25.85;;
75504;SDS011;64085;54.974;73.410;2023-09-18T17:18:25;41.10;;;22.63;;
75504;SDS011;64085;54.974;73.410;2023-09-18T17:20:51;42.40;;;24.38;;
75504;SDS011;64085;54.974;73.410;2023-09-18T17:23:16;39.72;;;22.70;;
75504;SDS011;64085;54.974;73.410;2023-09-18T17:25:43;34.60;;;17.95;;
75504;SDS011;64085;54.974;73.410;2023-09-18T17:28:11;35.53;;;16.38;;
75504;SDS011;64085;54.974;73.410;2023-09-18T17:30:37;32.75;;;15.98;;
75504;SDS011;64085;54.974;73.410;2023-09-18T17:33:03;34.55;;;15.75;;
75504;SDS011;64085;54.974;73.410;2023-09-18T17:35:29;20.20;;;11.98;;
75504;SDS011;64085;54.974;73.410;2023-09-18T17:37:55;17.08;;;10.88;;
75504;SDS011;64085;54.974;73.410;2023-09-18T17:40:20;19.60;;;11.85;;
75504;SDS011;64085;54.974;73.410;2023-09-18T17:42:45;20.77;;;11.38;;
75504;SDS011;64085;54.974;73.410;2023-09-18T17:45:12;19.13;;;13.15;;
75504;SDS011;64085;54.974;73.410;2023-09-18T17:47:37;28.02;;;13.07;;
75504;SDS011;64085;54.974;73.410;2023-09-18T17:50:04;24.38;;;12.90;;
75504;SDS011;64085;54.974;73.410;2023-09-18T17:52:30;23.00;;;12.05;;
75504;SDS011;64085;54.974;73.410;2023-09-18T17:54:56;25.02;;;12.13;;
75504;SDS011;64085;54.974;73.410;2023-09-18T17:57:23;23.20;;;13.13;;
75504;SDS011;64085;54.974;73.410;2023-09-18T17:59:48;27.08;;;13.95;;
75504;SDS011;64085;54.974;73.410;2023-09-18T18:02:14;25.05;;;11.98;;
75504;SDS011;64085;54.974;73.410;2023-09-18T18:04:42;27.30;;;12.60;;
75504;SDS011;64085;54.974;73.410;2023-09-18T18:07:07;25.30;;;14.38;;
75504;SDS011;64085;54.974;73.410;2023-09-18T18:09:33;29.55;;;15.00;;
75504;SDS011;64085;54.974;73.410;2023-09-18T18:11:58;23.58;;;14.40;;
75504;SDS011;64085;54.974;73.410;2023-09-18T18:14:25;24.83;;;15.35;;
75504;SDS011;64085;54.974;73.410;2023-09-18T18:16:51;25.55;;;15.88;;
75504;SDS011;64085;54.974;73.410;2023-09-18T18:19:17;20.17;;;11.27;;
75504;SDS011;64085;54.974;73.410;2023-09-18T18:21:42;22.58;;;11.52;;
75504;SDS011;64085;54.974;73.410;2023-09-18T18:24:07;21.45;;;12.77;;
75504;SDS011;64085;54.974;73.410;2023-09-18T18:26:34;16.95;;;10.02;;
75504;SDS011;64085;54.974;73.410;2023-09-18T18:29:01;18.58;;;11.15;;
75504;SDS011;64085;54.974;73.410;2023-09-18T18:31:30;20.27;;;10.77;;
75504;SDS011;64085;54.974;73.410;2023-09-18T18:33:56;13.38;;;8.20;;
75504;SDS011;64085;54.974;73.410;2023-09-18T18:36:25;15.38;;;8.95;;
75504;SDS011;64085;54.974;73.410;2023-09-18T18:38:51;14.10;;;8.05;;
75504;SDS011;64085;54.974;73.410;2023-09-18T18:41:17;13.65;;;8.15;;
75504;SDS011;64085;54.974;73.410;2023-09-18T18:43:43;15.70;;;7.57;;
75504;SDS011;64085;54.974;73.410;2023-09-18T18:46:08;14.23;;;8.32;;
75504;SDS011;64085;54.974;73.410;2023-09-18T18:48:34;17.85;;;8.38;;
75504;SDS011;64085;54.974;73.410;2023-09-18T18:51:07;18.45;;;9.32;;
75504;SDS011;64085;54.974;73.410;2023-09-18T18:53:33;20.13;;;9.27;;
75504;SDS011;64085;54.974;73.410;2023-09-18T18:55:58;18.27;;;10.15;;
75504;SDS011;64085;54.974;73.410;2023-09-18T18:58:24;24.75;;;12.50;;
75504;SDS011;64085;54.974;73.410;2023-09-18T19:00:49;23.42;;;13.68;;
75504;SDS011;64085;54.974;73.410;2023-09-18T19:03:17;21.45;;;11.95;;
75504;SDS011;64085;54.974;73.410;2023-09-18T19:05:45;21.52;;;11.38;;
75504;SDS011;64085;54.974;73.410;2023-09-18T19:08:11;24.30;;;13.13;;
75504;SDS011;64085;54.974;73.410;2023-09-18T19:10:39;23.05;;;11.80;;
75504;SDS011;64085;54.974;73.410;2023-09-18T19:13:05;24.35;;;13.55;;
75504;SDS011;64085;54.974;73.410;2023-09-18T19:15:30;21.00;;;11.40;;
75504;SDS011;64085;54.974;73.410;2023-09-18T19:17:56;21.63;;;11.82;;
75504;SDS011;64085;54.974;73.410;2023-09-18T19:20:22;20.58;;;10.48;;
75504;SDS011;64085;54.974;73.410;2023-09-18T19:22:49;22.42;;;10.07;;
75504;SDS011;64085;54.974;73.410;2023-09-18T19:25:15;22.10;;;11.50;;
75504;SDS011;64085;54.974;73.410;2023-09-18T19:27:41;20.90;;;10.45;;
75504;SDS011;64085;54.974;73.410;2023-09-18T19:30:07;20.98;;;11.70;;
75504;SDS011;64085;54.974;73.410;2023-09-18T19:32:36;19.75;;;11.52;;
75504;SDS011;64085;54.974;73.410;2023-09-18T19:35:01;18.98;;;10.98;;
75504;SDS011;64085;54.974;73.410;2023-09-18T19:37:27;24.38;;;13.18;;
75504;SDS011;64085;54.974;73.410;2023-09-18T19:39:53;22.80;;;12.60;;
75504;SDS011;64085;54.974;73.410;2023-09-18T19:42:18;24.02;;;12.57;;
75504;SDS011;64085;54.974;73.410;2023-09-18T19:44:43;24.33;;;14.70;;
75504;SDS011;64085;54.974;73.410;2023-09-18T19:47:09;26.90;;;15.40;;
75504;SDS011;64085;54.974;73.410;2023-09-18T19:49:37;26.25;;;14.13;;
75504;SDS011;64085;54.974;73.410;2023-09-18T19:52:03;28.55;;;15.10;;
75504;SDS011;64085;54.974;73.410;2023-09-18T19:54:29;35.40;;;15.98;;
75504;SDS011;64085;54.974;73.410;2023-09-18T19:56:56;31.48;;;17.23;;
75504;SDS011;64085;54.974;73.410;2023-09-18T19:59:21;32.22;;;17.00;;
75504;SDS011;64085;54.974;73.410;2023-09-18T20:01:47;27.50;;;14.10;;
75504;SDS011;64085;54.974;73.410;2023-09-18T20:04:12;34.45;;;17.27;;
75504;SDS011;64085;54.974;73.410;2023-09-18T20:06:38;30.70;;;16.55;;
75504;SDS011;64085;54.974;73.410;2023-09-18T20:09:03;33.38;;;16.42;;
75504;SDS011;64085;54.974;73.410;2023-09-18T20:11:31;28.20;;;15.13;;
75504;SDS011;64085;54.974;73.410;2023-09-18T20:13:57;26.90;;;14.90;;
75504;SDS011;64085;54.974;73.410;2023-09-18T20:16:23;28.13;;;16.27;;
75504;SDS011;64085;54.974;73.410;2023-09-18T20:18:49;27.42;;;15.15;;
75504;SDS011;64085;54.974;73.410;2023-09-18T20:21:17;27.35;;;16.17;;
75504;SDS011;64085;54.974;73.410;2023-09-18T20:23:45;31.27;;;15.90;;
75504;SDS011;64085;54.974;73.410;2023-09-18T20:26:10;36.45;;;14.80;;
75504;SDS011;64085;54.974;73.410;2023-09-18T20:28:36;28.25;;;16.25;;
75504;SDS011;64085;54.974;73.410;2023-09-18T20:31:01;35.85;;;18.65;;
75504;SDS011;64085;54.974;73.410;2023-09-18T20:33:28;32.30;;;16.50;;
75504;SDS011;64085;54.974;73.410;2023-09-18T20:36:02;30.10;;;16.52;;
75504;SDS011;64085;54.974;73.410;2023-09-18T20:38:28;29.73;;;15.02;;
75504;SDS011;64085;54.974;73.410;2023-09-18T20:40:53;27.02;;;15.60;;
75504;SDS011;64085;54.974;73.410;2023-09-18T20:43:19;29.20;;;14.70;;
75504;SDS011;64085;54.974;73.410;2023-09-18T20:45:52;27.42;;;15.88;;
75504;SDS011;64085;54.974;73.410;2023-09-18T20:48:18;27.13;;;14.90;;
75504;SDS011;64085;54.974;73.410;2023-09-18T20:50:44;34.05;;;15.38;;
75504;SDS011;64085;54.974;73.410;2023-09-18T20:53:09;27.27;;;15.30;;
75504;SDS011;64085;54.974;73.410;2023-09-18T20:55:35;28.35;;;15.35;;
75504;SDS011;64085;54.974;73.410;2023-09-18T20:58:01;25.02;;;13.63;;
75504;SDS011;64085;54.974;73.410;2023-09-18T21:00:26;29.85;;;14.65;;
75504;SDS011;64085;54.974;73.410;2023-09-18T21:02:51;31.27;;;14.90;;
75504;SDS011;64085;54.974;73.410;2023-09-18T21:05:18;27.42;;;14.13;;
75504;SDS011;64085;54.974;73.410;2023-09-18T21:07:44;29.42;;;14.93;;
75504;SDS011;64085;54.974;73.410;2023-09-18T21:10:10;25.15;;;12.73;;
75504;SDS011;64085;54.974;73.410;2023-09-18T21:12:36;21.30;;;12.63;;
75504;SDS011;64085;54.974;73.410;2023-09-18T21:15:01;24.10;;;13.93;;
75504;SDS011;64085;54.974;73.410;2023-09-18T21:17:27;27.20;;;15.50;;
75504;SDS011;64085;54.974;73.410;2023-09-18T21:19:53;30.40;;;13.88;;
75504;SDS011;64085;54.974;73.410;2023-09-18T21:22:18;26.48;;;14.00;;
75504;SDS011;64085;54.974;73.410;2023-09-18T21:24:44;27.25;;;15.48;;
75504;SDS011;64085;54.974;73.410;2023-09-18T21:27:12;30.38;;;15.07;;
75504;SDS011;64085;54.974;73.410;2023-09-18T21:29:37;27.75;;;14.68;;
75504;SDS011;64085;54.974;73.410;2023-09-18T21:32:03;29.98;;;16.05;;
75504;SDS011;64085;54.974;73.410;2023-09-18T21:34:29;30.95;;;16.00;;
75504;SDS011;64085;54.974;73.410;2023-09-18T21:36:54;34.50;;;17.65;;
75504;SDS011;64085;54.974;73.410;2023-09-18T21:39:20;30.90;;;15.75;;
75504;SDS011;64085;54.974;73.410;2023-09-18T21:41:46;29.38;;;15.40;;
75504;SDS011;64085;54.974;73.410;2023-09-18T21:44:11;32.15;;;16.05;;
75504;SDS011;64085;54.974;73.410;2023-09-18T21:46:38;31.75;;;16.75;;
75504;SDS011;64085;54.974;73.410;2023-09-18T21:49:04;31.63;;;16.02;;
75504;SDS011;64085;54.974;73.410;2023-09-18T21:51:29;27.33;;;15.32;;
75504;SDS011;64085;54.974;73.410;2023-09-18T21:53:59;26.13;;;15.73;;
75504;SDS011;64085;54.974;73.410;2023-09-18T21:56:25;30.25;;;15.02;;
75504;SDS011;64085;54.974;73.410;2023-09-18T21:58:50;29.15;;;15.85;;
75504;SDS011;64085;54.974;73.410;2023-09-18T22:01:16;26.23;;;15.85;;
75504;SDS011;64085;54.974;73.410;2023-09-18T22:03:41;31.58;;;15.60;;
75504;SDS011;64085;54.974;73.410;2023-09-18T22:06:09;27.48;;;15.50;;
75504;SDS011;64085;54.974;73.410;2023-09-18T22:08:35;25.83;;;14.73;;
75504;SDS011;64085;54.974;73.410;2023-09-18T22:11:03;28.65;;;14.65;;
75504;SDS011;64085;54.974;73.410;2023-09-18T22:13:31;29.70;;;16.63;;
75504;SDS011;64085;54.974;73.410;2023-09-18T22:15:56;26.23;;;14.50;;
75504;SDS011;64085;54.974;73.410;2023-09-18T22:18:23;27.08;;;14.80;;
75504;SDS011;64085;54.974;73.410;2023-09-18T22:20:49;27.25;;;15.48;;
75504;SDS011;64085;54.974;73.410;2023-09-18T22:23:14;29.08;;;14.80;;
75504;SDS011;64085;54.974;73.410;2023-09-18T22:25:40;31.40;;;15.10;;
75504;SDS011;64085;54.974;73.410;2023-09-18T22:28:06;27.60;;;15.40;;
75504;SDS011;64085;54.974;73.410;2023-09-18T22:30:33;31.38;;;16.27;;
75504;SDS011;64085;54.974;73.410;2023-09-18T22:32:58;29.58;;;17.17;;
75504;SDS011;64085;54.974;73.410;2023-09-18T22:35:24;32.30;;;16.95;;
75504;SDS011;64085;54.974;73.410;2023-09-18T22:37:50;37.72;;;17.17;;
75504;SDS011;64085;54.974;73.410;2023-09-18T22:56:06;36.30;;;19.63;;
75504;SDS011;64085;54.974;73.410;2023-09-18T22:58:33;33.33;;;18.23;;
75504;SDS011;64085;54.974;73.410;2023-09-18T23:01:00;37.83;;;19.08;;
75504;SDS011;64085;54.974;73.410;2023-09-18T23:03:28;33.53;;;18.40;;
75504;SDS011;64085;54.974;73.410;2023-09-18T23:05:55;39.03;;;21.10;;
75504;SDS011;64085;54.974;73.410;2023-09-18T23:08:21;37.97;;;19.83;;
75504;SDS011;64085;54.974;73.410;2023-09-18T23:10:47;36.50;;;21.45;;
75504;SDS011;64085;54.974;73.410;2023-09-18T23:13:13;37.28;;;21.30;;
75504;SDS011;64085;54.974;73.410;2023-09-18T23:15:38;38.97;;;19.48;;
75504;SDS011;64085;54.974;73.410;2023-09-18T23:18:06;27.67;;;17.15;;
75504;SDS011;64085;54.974;73.410;2023-09-18T23:20:31;28.77;;;17.40;;
75504;SDS011;64085;54.974;73.410;2023-09-18T23:22:58;29.40;;;18.83;;
75504;SDS011;64085;54.974;73.410;2023-09-18T23:25:24;28.73;;;17.90;;
75504;SDS011;64085;54.974;73.410;2023-09-18T23:27:50;32.50;;;18.95;;
75504;SDS011;64085;54.974;73.410;2023-09-18T23:30:20;28.48;;;17.55;;
75504;SDS011;64085;54.974;73.410;2023-09-18T23:32:52;29.27;;;16.98;;
75504;SDS011;64085;54.974;73.410;2023-09-18T23:35:17;30.23;;;16.90;;
75504;SDS011;64085;54.974;73.410;2023-09-18T23:38:07;27.40;;;16.45;;
75504;SDS011;64085;54.974;73.410;2023-09-18T23:40:33;30.52;;;17.42;;
75504;SDS011;64085;54.974;73.410;2023-09-18T23:43:00;29.90;;;16.38;;
75504;SDS011;64085;54.974;73.410;2023-09-18T23:48:04;26.92;;;15.05;;
75504;SDS011;64085;54.974;73.410;2023-09-18T23:50:29;30.52;;;15.02;;
75504;SDS011;64085;54.974;73.410;2023-09-18T23:52:56;37.78;;;19.48;;
75504;SDS011;64085;54.974;73.410;2023-09-18T23:55:25;36.47;;;19.13;;
75504;SDS011;64085;54.974;73.410;2023-09-18T23:57:54;34.15;;;19.80;;
